Time;durP1;ratioP1;P1;durP2;ratioP2;P2;SDS_P1;SDS_P2;PMS_P1;PMS_P2;Temp;Humidity;BMP_temperature;BMP_pressure;BME280_temperature;BME280_humidity;BME280_pressure;Samples;Min_cycle;Max_cycle;Signal;HPM_P1;HPM_P2
2022/11/09 00:01:25;;;;;;;9.00;5.80;;;15.20;99.90;;;;;;5023434;28;20848;-67
2022/11/09 00:04:02;;;;;;;8.07;5.63;;;15.20;99.90;;;;;;5028911;28;20981;-67
2022/11/09 00:06:28;;;;;;;8.37;6.30;;;15.20;99.90;;;;;;5021950;28;21008;-67
2022/11/09 00:08:54;;;;;;;7.73;6.10;;;15.20;99.90;;;;;;5040689;28;20449;-67
2022/11/09 00:11:20;;;;;;;7.73;6.17;;;15.20;99.90;;;;;;5039227;28;20849;-67
2022/11/09 00:13:46;;;;;;;8.00;6.37;;;15.10;99.90;;;;;;5039431;28;20529;-67
2022/11/09 00:19:42;;;;;;;10.07;6.27;;;15.10;99.90;;;;;;5023604;28;20464;-66
2022/11/09 00:22:08;;;;;;;7.87;6.30;;;15.10;99.90;;;;;;5019998;28;20815;-67
2022/11/09 00:24:34;;;;;;;12.80;7.80;;;15.00;99.90;;;;;;5013366;28;20224;-67
2022/11/09 00:26:59;;;;;;;10.63;6.87;;;15.00;99.90;;;;;;5017849;28;20704;-66
2022/11/09 00:29:25;;;;;;;9.40;6.33;;;15.00;99.90;;;;;;5021006;28;20461;-67
2022/11/09 00:31:50;;;;;;;9.17;7.00;;;15.00;99.90;;;;;;5024704;28;20195;-67
2022/11/09 00:34:16;;;;;;;8.57;6.83;;;15.00;99.90;;;;;;5042636;28;20258;-67
2022/11/09 00:36:42;;;;;;;9.50;6.93;;;14.90;99.90;;;;;;5041796;28;20190;-66
2022/11/09 00:39:07;;;;;;;9.57;7.30;;;14.70;99.90;;;;;;5015147;28;20195;-67
2022/11/09 00:41:39;;;;;;;10.00;7.30;;;14.50;99.90;;;;;;5039186;28;20651;-67
2022/11/09 00:44:05;;;;;;;7.30;6.60;;;14.60;99.90;;;;;;5019869;28;20545;-67
2022/11/09 00:46:31;;;;;;;11.83;7.50;;;14.60;99.90;;;;;;5020573;28;20539;-67
2022/11/09 00:48:57;;;;;;;15.70;9.40;;;14.70;99.90;;;;;;5017504;28;20196;-67
2022/11/09 00:51:22;;;;;;;17.60;8.70;;;14.70;99.90;;;;;;5036127;28;20196;-67
2022/11/09 00:53:52;;;;;;;11.00;8.03;;;14.70;99.90;;;;;;5039458;28;20993;-67
2022/11/09 00:56:18;;;;;;;9.90;7.90;;;14.70;99.90;;;;;;5044660;28;20202;-67
2022/11/09 00:58:43;;;;;;;11.10;7.80;;;14.70;99.90;;;;;;5040788;28;20533;-67
2022/11/09 01:01:15;;;;;;;9.00;7.07;;;14.70;99.90;;;;;;5043462;28;20294;-67
2022/11/09 01:03:42;;;;;;;10.70;8.70;;;14.70;99.90;;;;;;5042948;28;20192;-66
2022/11/09 01:06:08;;;;;;;9.67;8.57;;;14.70;99.90;;;;;;5039984;28;20445;-66
2022/11/09 01:08:34;;;;;;;9.60;7.93;;;14.70;99.90;;;;;;5042218;28;20477;-67
2022/11/09 01:11:05;;;;;;;8.30;7.43;;;14.80;99.90;;;;;;5040582;28;20538;-66
2022/11/09 01:13:32;;;;;;;11.30;7.87;;;14.70;99.90;;;;;;5038151;28;20445;-66
2022/11/09 01:15:57;;;;;;;10.80;8.40;;;14.60;99.90;;;;;;5046501;28;20476;-66
2022/11/09 01:18:23;;;;;;;9.40;7.70;;;14.60;99.90;;;;;;5041300;28;20439;-66
2022/11/09 01:20:49;;;;;;;9.50;8.00;;;14.60;99.90;;;;;;5041546;28;20206;-67
2022/11/09 01:23:17;;;;;;;11.23;8.47;;;14.60;99.90;;;;;;5026168;28;20645;-69
2022/11/09 01:25:43;;;;;;;9.30;7.53;;;14.60;99.90;;;;;;5043174;28;21145;-67
2022/11/09 01:28:10;;;;;;;8.80;7.90;;;14.60;99.90;;;;;;5043626;28;20430;-67
2022/11/09 01:30:38;;;;;;;10.47;7.67;;;14.50;99.90;;;;;;5044552;28;20210;-67
2022/11/09 01:33:05;;;;;;;9.87;7.50;;;14.50;99.90;;;;;;5042837;28;20450;-67
2022/11/09 01:35:39;;;;;;;10.67;7.67;;;14.60;99.90;;;;;;5042899;28;20527;-67
2022/11/09 01:38:06;;;;;;;8.70;7.80;;;14.60;99.90;;;;;;5040236;28;20501;-67
2022/11/09 01:40:34;;;;;;;15.07;8.77;;;14.50;99.90;;;;;;5043358;28;20895;-67
2022/11/09 01:43:20;;;;;;;9.90;7.33;;;14.60;99.90;;;;;;5044245;28;20911;-67
2022/11/09 01:46:18;;;;;;;11.27;8.27;;;14.50;99.90;;;;;;5045553;28;20768;-67
2022/11/09 01:48:57;;;;;;;8.03;7.13;;;14.50;99.90;;;;;;5038519;28;20815;-67
2022/11/09 01:51:33;;;;;;;8.97;7.47;;;14.50;99.90;;;;;;5045803;28;20493;-67
2022/11/09 01:54:11;;;;;;;11.10;7.40;;;14.40;99.90;;;;;;5041422;28;20469;-67
2022/11/09 01:56:37;;;;;;;10.07;7.57;;;14.50;99.90;;;;;;5039723;28;20690;-67
2022/11/09 01:59:09;;;;;;;10.97;7.73;;;14.40;99.90;;;;;;5014278;28;20446;-67
2022/11/09 02:01:35;;;;;;;9.53;7.50;;;14.50;99.90;;;;;;5034595;28;20507;-68
2022/11/09 02:04:12;;;;;;;12.30;7.57;;;14.50;99.90;;;;;;5019836;28;20470;-67
2022/11/09 02:06:38;;;;;;;9.67;7.40;;;14.40;99.90;;;;;;5031666;28;20438;-67
2022/11/09 02:09:11;;;;;;;11.07;7.50;;;14.40;99.90;;;;;;5040739;28;20925;-67
2022/11/09 02:11:37;;;;;;;9.73;7.67;;;14.30;99.90;;;;;;5035369;28;20219;-67
2022/11/09 02:14:04;;;;;;;8.13;6.80;;;14.30;99.90;;;;;;5014120;28;20569;-67
2022/11/09 02:16:31;;;;;;;8.43;7.07;;;14.30;99.90;;;;;;5041787;28;20892;-66
2022/11/09 02:18:59;;;;;;;7.27;6.57;;;14.30;99.90;;;;;;5019786;28;20814;-67
2022/11/09 02:21:29;;;;;;;12.93;7.57;;;14.30;99.90;;;;;;5036051;28;20418;-67
2022/11/09 02:23:56;;;;;;;9.50;7.10;;;14.30;99.90;;;;;;5020031;28;20795;-67
2022/11/09 02:26:49;;;;;;;9.43;7.13;;;14.30;99.90;;;;;;5023588;28;21048;-67
2022/11/09 02:29:26;;;;;;;9.27;7.00;;;14.20;99.90;;;;;;5021793;28;20562;-67
2022/11/09 02:32:02;;;;;;;12.50;6.83;;;14.20;99.90;;;;;;5041050;28;20447;-68
2022/11/09 02:34:28;;;;;;;9.23;7.27;;;14.10;99.90;;;;;;5023384;28;20940;-67
2022/11/09 02:36:53;;;;;;;7.73;6.27;;;14.10;99.90;;;;;;5036664;28;20455;-67
2022/11/09 02:39:22;;;;;;;7.83;7.03;;;14.10;99.90;;;;;;5041868;28;20252;-68
2022/11/09 02:41:50;;;;;;;8.60;7.73;;;14.00;99.90;;;;;;5042710;28;20237;-68
2022/11/09 02:44:17;;;;;;;9.97;7.70;;;14.10;99.90;;;;;;5043584;28;20795;-68
2022/11/09 02:46:43;;;;;;;9.93;7.20;;;14.10;99.90;;;;;;5042464;28;20468;-69
2022/11/09 02:49:09;;;;;;;10.97;8.30;;;14.00;99.90;;;;;;5044801;28;20445;-68
2022/11/09 02:51:34;;;;;;;10.73;7.60;;;14.00;99.90;;;;;;5044369;28;20479;-68
2022/11/09 02:54:00;;;;;;;7.60;6.70;;;14.00;99.90;;;;;;5041986;28;20206;-68
2022/11/09 02:56:25;;;;;;;9.10;7.23;;;14.00;99.90;;;;;;5043351;28;20690;-67
2022/11/09 02:58:51;;;;;;;8.13;6.70;;;14.00;99.90;;;;;;5045463;28;20922;-67
2022/11/09 03:01:20;;;;;;;7.67;6.73;;;14.00;99.90;;;;;;5032671;28;20234;-68
2022/11/09 03:03:46;;;;;;;9.13;7.20;;;14.00;99.90;;;;;;5017445;28;20184;-67
2022/11/09 03:06:12;;;;;;;9.27;7.50;;;14.00;99.90;;;;;;5021211;28;20499;-67
2022/11/09 03:08:38;;;;;;;8.10;7.20;;;14.00;99.90;;;;;;5025944;28;20663;-67
2022/11/09 03:11:05;;;;;;;9.30;7.90;;;13.90;99.90;;;;;;5012933;28;20474;-67
2022/11/09 03:13:31;;;;;;;11.47;7.30;;;14.00;99.90;;;;;;5017935;28;20493;-67
2022/11/09 03:15:57;;;;;;;8.43;6.70;;;14.00;99.90;;;;;;5032918;28;20449;-67
2022/11/09 03:18:22;;;;;;;10.10;7.83;;;14.00;99.90;;;;;;5010170;28;20438;-66
2022/11/09 03:20:48;;;;;;;8.33;7.53;;;14.10;99.90;;;;;;5038246;28;20759;-67
2022/11/09 03:23:13;;;;;;;10.10;7.10;;;14.10;99.90;;;;;;5041214;28;20652;-68
2022/11/09 03:25:39;;;;;;;7.77;6.90;;;14.20;99.90;;;;;;5042165;28;20645;-68
2022/11/09 03:28:07;;;;;;;6.80;6.10;;;14.20;99.90;;;;;;5041700;28;20180;-68
2022/11/09 03:30:33;;;;;;;8.60;7.50;;;14.20;99.90;;;;;;5043450;28;20204;-68
2022/11/09 03:33:01;;;;;;;12.10;7.73;;;14.30;99.90;;;;;;5035063;28;20452;-68
2022/11/09 03:35:27;;;;;;;7.97;5.90;;;14.30;99.90;;;;;;5027703;28;20502;-68
2022/11/09 03:37:52;;;;;;;10.43;6.60;;;14.30;99.90;;;;;;5050106;28;20909;-68
2022/11/09 03:40:19;;;;;;;9.73;6.20;;;14.30;99.90;;;;;;5045082;28;20278;-68
2022/11/09 03:42:45;;;;;;;6.80;6.10;;;14.30;99.90;;;;;;5044678;28;20191;-68
2022/11/09 03:45:12;;;;;;;9.50;6.87;;;14.40;99.90;;;;;;5043271;28;20505;-68
2022/11/09 03:47:42;;;;;;;7.13;6.43;;;14.40;99.90;;;;;;5044572;28;20531;-67
2022/11/09 03:50:08;;;;;;;8.03;6.40;;;14.40;99.90;;;;;;5041306;28;20775;-68
2022/11/09 03:52:34;;;;;;;8.97;6.67;;;14.40;99.90;;;;;;5046418;28;20523;-68
2022/11/09 03:54:59;;;;;;;6.67;5.97;;;14.50;99.90;;;;;;5043509;28;21050;-67
2022/11/09 03:57:25;;;;;;;8.73;6.07;;;14.50;99.90;;;;;;5043885;28;20825;-67
2022/11/09 03:59:50;;;;;;;7.63;6.00;;;14.50;99.90;;;;;;5044234;28;20203;-67
2022/11/09 04:02:16;;;;;;;8.30;6.33;;;14.50;99.90;;;;;;5049456;28;20267;-67
2022/11/09 04:04:41;;;;;;;7.30;6.10;;;14.50;99.90;;;;;;5044136;28;20187;-67
2022/11/09 04:07:09;;;;;;;7.53;6.00;;;14.50;99.90;;;;;;5046949;28;20192;-67
2022/11/09 04:09:35;;;;;;;11.23;6.07;;;14.50;99.90;;;;;;5045258;28;20261;-67
2022/11/09 04:12:01;;;;;;;7.03;5.63;;;14.50;99.90;;;;;;5045002;28;20477;-67
2022/11/09 04:14:26;;;;;;;7.33;6.47;;;14.50;99.90;;;;;;5046277;28;20236;-67
2022/11/09 04:16:52;;;;;;;7.20;6.00;;;14.50;99.90;;;;;;5043472;28;20788;-67
2022/11/09 04:19:17;;;;;;;6.20;5.40;;;14.50;99.90;;;;;;5046441;28;20253;-67
2022/11/09 04:21:43;;;;;;;7.40;5.93;;;14.50;99.90;;;;;;5045487;28;20184;-67
2022/11/09 04:24:08;;;;;;;6.47;5.70;;;14.50;99.90;;;;;;5026566;28;20191;-67
2022/11/09 04:26:34;;;;;;;6.27;5.67;;;14.60;99.90;;;;;;5046152;28;20210;-67
2022/11/09 04:29:00;;;;;;;7.40;5.33;;;14.60;99.90;;;;;;5043461;28;20179;-67
2022/11/09 04:31:25;;;;;;;8.93;5.07;;;14.50;99.90;;;;;;5044837;28;20671;-67
2022/11/09 04:33:51;;;;;;;6.23;4.87;;;14.50;99.90;;;;;;5041957;28;20207;-67
2022/11/09 04:36:17;;;;;;;8.00;5.20;;;14.50;99.90;;;;;;5046482;28;20192;-67
2022/11/09 04:38:43;;;;;;;8.83;5.07;;;14.50;99.90;;;;;;5048136;28;20652;-67
2022/11/09 04:41:08;;;;;;;6.33;4.23;;;14.50;99.90;;;;;;5044657;28;20545;-67
2022/11/09 04:43:34;;;;;;;5.63;4.30;;;14.50;99.90;;;;;;5045671;28;20527;-67
2022/11/09 04:46:01;;;;;;;5.57;3.90;;;14.50;99.90;;;;;;5044721;28;20596;-67
2022/11/09 04:48:28;;;;;;;4.20;3.80;;;14.50;99.90;;;;;;5025872;28;20679;-67
2022/11/09 04:51:05;;;;;;;5.13;3.50;;;14.60;99.90;;;;;;5043286;28;20481;-67
2022/11/09 04:53:31;;;;;;;4.53;3.33;;;14.60;99.90;;;;;;5044670;28;20501;-67
2022/11/09 04:55:57;;;;;;;5.07;3.40;;;14.50;99.90;;;;;;5042578;28;20529;-68
2022/11/09 04:58:23;;;;;;;6.40;3.33;;;14.50;99.90;;;;;;5045836;28;20188;-67
2022/11/09 05:00:48;;;;;;;4.57;3.33;;;14.50;99.90;;;;;;5044445;28;20503;-68
2022/11/09 05:03:14;;;;;;;3.57;3.03;;;14.50;99.90;;;;;;5044605;28;20484;-68
2022/11/09 05:05:40;;;;;;;3.83;3.00;;;14.50;99.90;;;;;;5042171;28;20203;-68
2022/11/09 05:08:07;;;;;;;6.20;3.13;;;14.60;99.90;;;;;;5026619;28;20686;-67
2022/11/09 05:10:33;;;;;;;5.60;3.43;;;14.60;99.90;;;;;;5042022;28;20592;-68
2022/11/09 05:13:00;;;;;;;4.60;3.37;;;14.60;99.90;;;;;;5026117;28;20970;-68
2022/11/09 05:15:26;;;;;;;3.47;3.17;;;14.60;99.90;;;;;;5043418;28;20458;-68
2022/11/09 05:17:52;;;;;;;3.60;2.93;;;14.70;99.90;;;;;;5046617;28;20934;-68
2022/11/09 05:20:18;;;;;;;4.30;3.00;;;14.70;99.90;;;;;;5042631;28;20445;-68
2022/11/09 05:25:28;;;;;;;3.73;2.90;;;14.70;99.90;;;;;;5043238;28;20199;-67
2022/11/09 05:27:53;;;;;;;3.20;2.50;;;14.70;99.90;;;;;;5026711;28;20431;-68
2022/11/09 05:30:19;;;;;;;3.90;2.60;;;14.70;99.90;;;;;;5043459;28;21144;-67
2022/11/09 05:32:45;;;;;;;3.10;2.80;;;14.70;99.90;;;;;;5041051;28;20194;-67
2022/11/09 05:35:11;;;;;;;3.77;2.70;;;14.80;99.90;;;;;;5015711;28;20490;-67
2022/11/09 05:37:40;;;;;;;6.67;2.83;;;14.80;99.90;;;;;;5019310;28;20191;-68
2022/11/09 05:40:08;;;;;;;3.70;2.90;;;14.70;99.90;;;;;;5023175;28;20203;-67
2022/11/09 05:42:34;;;;;;;3.70;2.33;;;14.70;99.90;;;;;;5018585;28;20442;-67
2022/11/09 05:45:00;;;;;;;4.70;2.90;;;14.60;99.90;;;;;;5020100;28;20438;-66
2022/11/09 05:47:25;;;;;;;3.67;2.60;;;14.60;99.90;;;;;;5013740;28;20423;-67
2022/11/09 05:53:13;;;;;;;6.00;2.37;;;14.50;99.90;;;;;;5024911;28;20227;-68
2022/11/09 05:55:39;;;;;;;4.93;2.77;;;14.60;99.90;;;;;;5039707;28;20466;-67
2022/11/09 05:58:05;;;;;;;6.93;2.90;;;14.60;99.90;;;;;;5043003;28;20216;-69
2022/11/09 06:00:31;;;;;;;3.00;2.30;;;14.50;99.90;;;;;;5043947;28;20438;-68
2022/11/09 06:03:04;;;;;;;5.13;2.60;;;14.50;99.90;;;;;;5039401;28;20434;-67
2022/11/09 06:05:32;;;;;;;6.63;2.50;;;14.50;99.90;;;;;;5043272;28;20834;-67
2022/11/09 06:08:05;;;;;;;3.27;2.47;;;14.50;99.90;;;;;;5016244;28;20998;-68
2022/11/09 06:10:31;;;;;;;3.70;2.23;;;14.50;99.90;;;;;;5043094;28;20897;-67
2022/11/09 06:12:57;;;;;;;3.63;2.63;;;14.40;99.90;;;;;;5045076;28;20425;-67
2022/11/09 06:15:23;;;;;;;3.13;2.27;;;14.40;99.90;;;;;;5039452;28;20480;-67
2022/11/09 06:17:56;;;;;;;5.73;2.70;;;14.40;99.90;;;;;;5041999;28;20183;-68
2022/11/09 06:20:22;;;;;;;3.80;2.20;;;14.40;99.90;;;;;;5039824;28;20478;-67
2022/11/09 06:22:59;;;;;;;3.50;2.37;;;14.30;99.90;;;;;;5042839;28;20835;-68
2022/11/09 06:25:25;;;;;;;3.10;2.50;;;14.40;99.90;;;;;;5045232;28;20433;-68
2022/11/09 06:27:54;;;;;;;3.57;2.53;;;14.30;99.90;;;;;;5041199;28;20846;-67
2022/11/09 06:30:21;;;;;;;3.67;2.90;;;14.30;99.90;;;;;;5042018;28;20445;-68
2022/11/09 06:32:46;;;;;;;3.83;2.47;;;14.30;99.90;;;;;;5042538;28;20441;-67
2022/11/09 06:35:12;;;;;;;3.33;2.50;;;14.30;99.90;;;;;;5044187;28;20496;-67
2022/11/09 06:37:37;;;;;;;3.10;2.30;;;14.30;99.90;;;;;;5041282;28;20688;-68
2022/11/09 06:40:05;;;;;;;3.80;2.20;;;14.30;99.90;;;;;;5045144;28;20199;-68
2022/11/09 06:42:30;;;;;;;3.23;2.93;;;14.30;99.90;;;;;;5041062;28;20179;-68
2022/11/09 06:44:56;;;;;;;2.37;1.90;;;14.30;99.90;;;;;;5044678;28;20471;-68
2022/11/09 06:47:21;;;;;;;2.13;1.60;;;14.30;99.90;;;;;;5043924;28;20188;-68
2022/11/09 06:49:47;;;;;;;2.90;1.90;;;14.30;99.90;;;;;;5042629;28;20204;-67
2022/11/09 06:52:12;;;;;;;6.20;2.07;;;14.20;99.90;;;;;;5038963;28;20603;-69
2022/11/09 06:54:38;;;;;;;3.30;2.30;;;14.20;99.90;;;;;;5039341;28;20219;-67
2022/11/09 06:57:04;;;;;;;3.13;2.17;;;14.20;99.90;;;;;;5042386;28;20216;-68
2022/11/09 06:59:30;;;;;;;6.43;2.00;;;14.20;99.90;;;;;;5042708;28;20871;-68
2022/11/09 07:01:55;;;;;;;4.60;2.30;;;14.20;99.90;;;;;;5039818;28;21033;-68
2022/11/09 07:04:21;;;;;;;3.83;2.10;;;14.30;99.90;;;;;;5044583;28;20873;-68
2022/11/09 07:06:46;;;;;;;3.20;2.07;;;14.30;99.90;;;;;;5037711;28;20604;-68
2022/11/09 07:09:12;;;;;;;2.10;1.53;;;14.30;99.90;;;;;;5049281;28;20217;-68
2022/11/09 07:11:37;;;;;;;4.57;1.97;;;14.30;99.90;;;;;;5047254;28;20274;-67
2022/11/09 07:14:03;;;;;;;3.37;1.83;;;14.30;99.90;;;;;;5046215;28;20213;-68
2022/11/09 07:16:30;;;;;;;3.17;1.80;;;14.20;99.90;;;;;;5049837;28;20270;-68
2022/11/09 07:18:56;;;;;;;2.20;1.80;;;14.30;99.90;;;;;;5030163;28;20472;-68
2022/11/09 07:21:22;;;;;;;2.33;1.47;;;14.30;99.90;;;;;;5048872;28;20435;-68
2022/11/09 07:23:48;;;;;;;2.80;1.70;;;14.30;99.90;;;;;;5048996;28;20774;-68
2022/11/09 07:26:14;;;;;;;2.63;1.87;;;14.30;99.90;;;;;;5044943;28;20184;-68
2022/11/09 07:28:40;;;;;;;2.50;1.90;;;14.30;99.90;;;;;;5047456;28;20487;-68
2022/11/09 07:31:07;;;;;;;2.23;1.80;;;14.40;99.90;;;;;;5047972;28;20445;-68
2022/11/09 07:33:32;;;;;;;4.10;2.20;;;14.40;99.90;;;;;;5048846;28;20438;-68
2022/11/09 07:36:00;;;;;;;3.73;2.33;;;14.40;99.90;;;;;;5048988;28;20425;-68
2022/11/09 07:38:29;;;;;;;3.63;2.80;;;14.40;99.90;;;;;;5047177;28;20271;-68
2022/11/09 07:40:59;;;;;;;2.93;2.20;;;14.40;99.90;;;;;;5049089;28;20466;-68
2022/11/09 07:43:25;;;;;;;3.90;3.07;;;14.40;99.90;;;;;;5046114;28;20426;-68
2022/11/09 07:45:51;;;;;;;3.77;2.23;;;14.40;99.90;;;;;;5035348;28;20444;-67
2022/11/09 07:48:17;;;;;;;4.73;2.50;;;14.40;99.90;;;;;;5046920;28;20447;-68
2022/11/09 07:50:43;;;;;;;3.10;2.40;;;14.50;99.90;;;;;;5049588;28;20588;-68
2022/11/09 07:53:11;;;;;;;3.40;2.50;;;14.50;99.90;;;;;;5048016;28;20281;-68
2022/11/09 07:55:37;;;;;;;3.70;2.67;;;14.50;99.90;;;;;;5027054;28;20611;-67
2022/11/09 07:58:06;;;;;;;3.30;2.40;;;14.60;99.90;;;;;;5047570;28;20926;-68
2022/11/09 08:00:33;;;;;;;5.53;2.80;;;14.70;99.90;;;;;;5047277;28;20635;-68
2022/11/09 08:02:58;;;;;;;3.70;2.80;;;14.70;99.90;;;;;;5047551;28;20461;-68
2022/11/09 08:05:24;;;;;;;3.07;2.70;;;14.80;99.90;;;;;;5047348;28;20830;-68
2022/11/09 08:07:58;;;;;;;5.43;2.93;;;14.80;99.90;;;;;;5049966;28;20191;-68
2022/11/09 08:10:25;;;;;;;3.30;2.60;;;14.90;99.90;;;;;;5048337;28;20246;-68
2022/11/09 08:12:59;;;;;;;4.87;3.77;;;15.00;99.90;;;;;;5046818;28;21853;-68
2022/11/09 08:15:25;;;;;;;4.40;2.97;;;15.00;99.90;;;;;;5043437;28;20932;-68
2022/11/09 08:17:51;;;;;;;4.90;2.40;;;15.00;99.90;;;;;;5048871;28;20441;-68
2022/11/09 08:20:17;;;;;;;3.30;2.87;;;15.10;99.90;;;;;;5045395;28;20628;-68
2022/11/09 08:22:44;;;;;;;6.10;2.50;;;15.10;99.90;;;;;;5041272;28;20218;-69
2022/11/09 08:25:10;;;;;;;4.27;2.30;;;15.10;99.90;;;;;;5043644;28;20491;-68
2022/11/09 08:27:39;;;;;;;3.60;2.60;;;15.10;99.90;;;;;;5044791;28;20933;-69
2022/11/09 08:30:06;;;;;;;3.60;2.80;;;15.20;99.90;;;;;;5046569;28;20533;-67
2022/11/09 08:32:32;;;;;;;6.40;2.60;;;15.30;99.90;;;;;;5043988;28;20560;-67
2022/11/09 08:34:58;;;;;;;6.10;3.37;;;15.30;99.90;;;;;;5046913;28;20461;-67
2022/11/09 08:37:23;;;;;;;4.93;2.53;;;15.30;99.90;;;;;;5028414;28;20445;-67
2022/11/09 08:39:49;;;;;;;7.90;3.83;;;15.50;99.90;;;;;;5044621;28;20202;-67
2022/11/09 08:42:17;;;;;;;3.00;2.20;;;15.40;99.90;;;;;;5041609;28;20576;-68
2022/11/09 08:44:42;;;;;;;3.20;2.03;;;15.50;99.90;;;;;;5044949;28;20195;-68
2022/11/09 08:47:08;;;;;;;3.13;2.10;;;15.50;99.90;;;;;;5046000;28;20438;-68
2022/11/09 08:49:34;;;;;;;2.67;1.60;;;15.50;99.90;;;;;;5045630;28;20239;-68
2022/11/09 08:52:00;;;;;;;4.53;1.83;;;15.60;99.90;;;;;;5040885;28;20215;-68
2022/11/09 08:54:25;;;;;;;2.50;2.07;;;15.60;99.90;;;;;;5046794;28;20218;-68
2022/11/09 08:56:54;;;;;;;4.50;1.70;;;15.60;99.90;;;;;;5044488;28;20427;-68
2022/11/09 08:59:20;;;;;;;3.20;1.80;;;15.70;99.90;;;;;;5040857;28;20434;-69
2022/11/09 09:01:46;;;;;;;2.40;1.50;;;15.70;99.90;;;;;;5044239;28;20418;-68
2022/11/09 09:04:11;;;;;;;2.03;1.57;;;15.70;99.90;;;;;;5043934;28;20556;-68
2022/11/09 09:06:37;;;;;;;4.33;1.90;;;15.70;99.90;;;;;;5043774;28;20370;-68
2022/11/09 09:09:02;;;;;;;3.03;1.80;;;15.70;99.90;;;;;;5047208;28;20192;-68
2022/11/09 09:11:28;;;;;;;2.70;1.60;;;15.70;99.90;;;;;;5045142;28;20199;-68
2022/11/09 09:13:53;;;;;;;3.10;2.33;;;15.70;99.90;;;;;;5045031;28;20732;-68
2022/11/09 09:16:19;;;;;;;2.67;1.70;;;15.80;99.90;;;;;;5042253;28;20188;-68
2022/11/09 09:18:47;;;;;;;2.30;1.70;;;15.80;99.90;;;;;;5041543;28;20762;-68
2022/11/09 09:21:13;;;;;;;2.13;1.50;;;15.80;99.90;;;;;;5041110;28;20216;-68
2022/11/09 09:23:38;;;;;;;2.23;1.70;;;15.90;99.90;;;;;;5044328;28;20773;-67
2022/11/09 09:26:05;;;;;;;2.90;2.20;;;15.90;99.90;;;;;;5027013;28;20331;-67
2022/11/09 09:28:30;;;;;;;1.70;1.47;;;15.90;99.90;;;;;;5042840;28;20199;-66
2022/11/09 09:31:00;;;;;;;2.00;1.67;;;16.00;99.90;;;;;;5046068;28;20441;-67
2022/11/09 09:33:26;;;;;;;2.00;1.53;;;16.00;99.90;;;;;;5026191;28;20186;-66
2022/11/09 09:35:56;;;;;;;3.00;2.00;;;16.00;99.90;;;;;;5044318;28;20485;-67
2022/11/09 09:38:22;;;;;;;2.47;1.40;;;16.10;99.90;;;;;;5043706;28;20836;-67
2022/11/09 09:40:56;;;;;;;3.27;1.70;;;16.20;99.90;;;;;;5042960;28;20768;-66
2022/11/09 09:43:31;;;;;;;4.07;1.67;;;16.20;99.90;;;;;;5040481;28;20549;-67
2022/11/09 09:45:58;;;;;;;2.23;1.70;;;16.30;99.90;;;;;;5040431;28;20441;-67
2022/11/09 09:48:51;;;;;;;7.77;1.53;;;16.30;99.90;;;;;;5040825;28;20530;-67
2022/11/09 09:51:28;;;;;;;2.50;1.53;;;16.40;99.90;;;;;;5042850;28;20461;-67
2022/11/09 09:54:05;;;;;;;2.47;1.63;;;16.40;99.90;;;;;;5045570;28;20528;-67
2022/11/09 09:56:36;;;;;;;3.77;1.70;;;16.40;99.90;;;;;;5044483;28;20440;-67
2022/11/09 09:59:12;;;;;;;2.50;1.83;;;16.50;99.90;;;;;;5044327;28;20418;-68
2022/11/09 10:01:43;;;;;;;3.47;2.20;;;16.50;99.90;;;;;;5041246;28;20537;-67
2022/11/09 10:04:25;;;;;;;2.30;1.77;;;16.50;99.90;;;;;;5046340;28;20520;-68
2022/11/09 10:07:45;;;;;;;2.63;1.93;;;16.40;99.90;;;;;;5043312;28;20480;-68
2022/11/09 10:10:38;;;;;;;3.10;1.80;;;16.50;99.90;;;;;;4944550;28;20497;-68
2022/11/09 10:13:40;;;;;;;3.60;2.00;;;16.70;99.90;;;;;;5041792;28;20503;-67
2022/11/09 10:16:26;;;;;;;2.40;1.77;;;16.70;99.90;;;;;;5044049;28;20473;-68
2022/11/09 10:19:10;;;;;;;3.37;2.07;;;16.70;99.90;;;;;;5041569;28;20426;-68
2022/11/09 10:22:01;;;;;;;2.70;2.13;;;16.80;99.90;;;;;;5040033;28;20453;-69
2022/11/09 10:24:30;;;;;;;4.27;1.80;;;16.80;99.90;;;;;;5042174;28;20483;-69
2022/11/09 10:26:58;;;;;;;7.03;1.90;;;17.00;99.90;;;;;;5047476;28;20432;-68
2022/11/09 10:29:34;;;;;;;2.63;2.10;;;17.00;99.90;;;;;;5043249;28;20461;-67
2022/11/09 10:32:10;;;;;;;3.70;1.87;;;17.10;99.90;;;;;;5041536;28;20895;-67
2022/11/09 10:35:26;;;;;;;5.80;2.30;;;17.20;99.90;;;;;;5043139;28;20453;-68
2022/11/09 10:37:53;;;;;;;2.80;2.30;;;17.20;99.90;;;;;;4998994;28;20438;-68
2022/11/09 10:40:40;;;;;;;8.73;2.50;;;17.20;99.90;;;;;;5043770;28;20460;-68
2022/11/09 10:43:13;;;;;;;3.00;2.27;;;17.30;99.90;;;;;;5043184;28;20965;-67
2022/11/09 10:45:41;;;;;;;4.27;1.77;;;17.40;99.90;;;;;;5042125;28;20496;-68
2022/11/09 10:48:09;;;;;;;6.40;2.40;;;17.50;99.90;;;;;;5040135;28;20965;-67
2022/11/09 10:50:52;;;;;;;2.50;2.10;;;17.40;99.90;;;;;;5042153;28;20973;-68
2022/11/09 10:53:24;;;;;;;2.77;1.90;;;17.30;99.90;;;;;;5040842;28;20422;-69
2022/11/09 10:56:13;;;;;;;4.77;2.00;;;17.40;99.90;;;;;;5038002;28;20549;-67
2022/11/09 10:58:49;;;;;;;2.70;2.10;;;17.30;99.90;;;;;;5037584;28;20941;-67
2022/11/09 11:01:20;;;;;;;3.40;2.17;;;17.20;99.90;;;;;;5038695;28;20466;-68
2022/11/09 11:03:50;;;;;;;3.63;2.57;;;17.20;99.90;;;;;;5020843;28;20439;-67
2022/11/09 11:06:21;;;;;;;4.17;2.60;;;17.20;99.90;;;;;;5038696;28;20441;-68
2022/11/09 11:09:11;;;;;;;4.00;2.20;;;17.30;99.90;;;;;;5040364;28;20414;-67
2022/11/09 11:11:38;;;;;;;4.60;2.60;;;17.40;99.90;;;;;;5040156;28;20799;-68
2022/11/09 11:14:03;;;;;;;4.80;1.97;;;17.60;99.90;;;;;;5043071;28;20476;-67
2022/11/09 11:16:34;;;;;;;2.90;2.00;;;17.50;99.90;;;;;;5041989;28;20808;-67
2022/11/09 11:19:00;;;;;;;3.77;2.17;;;17.60;99.90;;;;;;5040274;28;20230;-68
2022/11/09 11:21:26;;;;;;;2.60;2.10;;;17.60;99.90;;;;;;5038284;28;20470;-67
2022/11/09 11:24:17;;;;;;;4.50;2.10;;;17.80;99.90;;;;;;5043968;28;20430;-67
2022/11/09 11:26:58;;;;;;;2.80;1.80;;;17.80;99.90;;;;;;5047012;28;20456;-66
2022/11/09 11:29:44;;;;;;;2.70;1.90;;;17.70;99.90;;;;;;5024491;28;20476;-67
2022/11/09 11:32:15;;;;;;;6.50;2.27;;;17.60;99.90;;;;;;5040142;28;20789;-67
2022/11/09 11:34:47;;;;;;;3.40;2.13;;;17.60;99.90;;;;;;5043451;28;20535;-68
2022/11/09 11:37:48;;;;;;;3.10;2.10;;;17.60;99.90;;;;;;5039667;28;21649;-67
2022/11/09 11:40:38;;;;;;;2.90;2.00;;;17.50;99.90;;;;;;5040951;28;20842;-68
2022/11/09 11:43:22;;;;;;;2.90;2.30;;;17.60;99.90;;;;;;5041273;28;20447;-68
2022/11/09 11:46:14;;;;;;;4.63;2.23;;;17.60;99.90;;;;;;5041876;28;20445;-68
2022/11/09 11:48:51;;;;;;;2.30;1.83;;;17.60;99.90;;;;;;5039923;28;20737;-68
2022/11/09 11:51:41;;;;;;;5.63;2.20;;;17.70;99.90;;;;;;5041611;28;20441;-67
2022/11/09 11:54:20;;;;;;;2.47;2.00;;;17.80;99.90;;;;;;4996507;28;20478;-67
2022/11/09 11:57:00;;;;;;;3.37;2.03;;;17.90;99.90;;;;;;5044290;28;20797;-67
2022/11/09 11:59:54;;;;;;;3.13;1.97;;;17.90;99.90;;;;;;5045649;28;20446;-67
2022/11/09 12:02:45;;;;;;;2.90;2.03;;;17.90;99.90;;;;;;5044935;28;20951;-69
2022/11/09 12:05:49;;;;;;;2.67;1.97;;;17.90;99.90;;;;;;5046298;28;20519;-69
2022/11/09 12:08:23;;;;;;;2.90;2.10;;;17.90;99.90;;;;;;5043585;28;21327;-68
2022/11/09 12:11:02;;;;;;;2.70;2.20;;;17.90;99.90;;;;;;5046056;28;20629;-68
2022/11/09 12:13:40;;;;;;;3.20;2.50;;;18.00;99.90;;;;;;5046092;28;20997;-68
2022/11/09 12:16:29;;;;;;;6.13;2.50;;;17.90;99.90;;;;;;5045843;28;20858;-66
2022/11/09 12:19:04;;;;;;;2.90;2.00;;;17.80;99.90;;;;;;5044831;28;20771;-68
2022/11/09 12:21:56;;;;;;;2.50;2.10;;;17.70;99.90;;;;;;5045279;28;20453;-67
2022/11/09 12:24:21;;;;;;;2.60;2.10;;;17.60;99.90;;;;;;5042266;28;20422;-68
2022/11/09 12:27:34;;;;;;;4.80;3.07;;;17.50;99.90;;;;;;5047035;28;20447;-68
2022/11/09 12:30:21;;;;;;;4.07;2.40;;;17.40;99.90;;;;;;5008614;28;20468;-68
2022/11/09 12:33:04;;;;;;;2.80;2.20;;;17.40;99.90;;;;;;5045987;28;20498;-66
2022/11/09 12:35:39;;;;;;;2.93;2.37;;;17.40;99.90;;;;;;5045451;28;20467;-68
2022/11/09 12:38:28;;;;;;;6.30;2.27;;;17.30;99.90;;;;;;5045385;28;20434;-68
2022/11/09 12:41:04;;;;;;;3.13;2.20;;;17.20;99.90;;;;;;5046463;28;20461;-68
2022/11/09 12:43:44;;;;;;;4.27;2.20;;;17.10;99.90;;;;;;5043293;28;20798;-68
2022/11/09 12:46:12;;;;;;;4.27;2.50;;;17.20;99.90;;;;;;5043121;28;20800;-68
2022/11/09 12:48:39;;;;;;;4.57;2.53;;;17.30;99.90;;;;;;5045914;28;20524;-68
2022/11/09 12:51:07;;;;;;;2.60;2.33;;;17.30;99.90;;;;;;5043695;28;20984;-67
2022/11/09 12:53:35;;;;;;;3.20;2.80;;;17.30;99.90;;;;;;5040206;28;20442;-68
2022/11/09 12:56:30;;;;;;;4.00;2.93;;;17.30;99.90;;;;;;5026681;28;20466;-67
2022/11/09 12:59:33;;;;;;;4.53;3.00;;;17.30;99.90;;;;;;5042470;28;20920;-68
2022/11/09 13:02:01;;;;;;;2.87;2.23;;;17.40;99.90;;;;;;4964025;28;21016;-68
2022/11/09 13:04:27;;;;;;;3.70;2.33;;;17.30;99.90;;;;;;5027866;28;20480;-69
2022/11/09 13:07:17;;;;;;;5.80;2.90;;;17.30;99.90;;;;;;5042578;28;20739;-68
2022/11/09 13:09:43;;;;;;;4.47;2.67;;;17.30;99.90;;;;;;5033354;28;20715;-68
2022/11/09 13:12:18;;;;;;;3.70;3.30;;;17.30;99.90;;;;;;5044112;28;20930;-68